Time;durP1;ratioP1;P1;durP2;ratioP2;P2;SDS_P1;SDS_P2;PMS_P1;PMS_P2;Temp;Humidity;BMP_temperature;BMP_pressure;BME280_temperature;BME280_humidity;BME280_pressure;Samples;Min_cycle;Max_cycle;Signal;HPM_P1;HPM_P2
2023/08/04 00:02:37;;;;;;;;;;;22.80;59.80;;;;;;8359193;28;19916;-72
2023/08/04 00:06:38;;;;;;;;;;;22.80;59.80;;;;;;8342402;28;19912;-73
2023/08/04 00:10:38;;;;;;;;;;;22.80;59.80;;;;;;8379667;28;19946;-73
2023/08/04 00:14:39;;;;;;;;;;;22.80;59.80;;;;;;8374583;28;19913;-73
2023/08/04 00:18:39;;;;;;;;;;;22.80;59.80;;;;;;8393704;28;19916;-73
2023/08/04 00:22:40;;;;;;;;;;;22.80;59.80;;;;;;8375516;28;20003;-72
2023/08/04 00:26:40;;;;;;;;;;;22.80;59.80;;;;;;8375403;28;19919;-73
2023/08/04 00:30:41;;;;;;;;;;;22.80;59.80;;;;;;8393135;28;19921;-73
2023/08/04 00:34:41;;;;;;;;;;;22.80;59.80;;;;;;8358299;28;19935;-73
2023/08/04 00:38:42;;;;;;;;;;;22.80;59.80;;;;;;8358325;28;19915;-73
2023/08/04 00:42:42;;;;;;;;;;;22.80;59.80;;;;;;8393117;28;20016;-73
2023/08/04 00:46:43;;;;;;;;;;;22.80;59.80;;;;;;8393147;28;19919;-72
2023/08/04 00:50:44;;;;;;;;;;;22.80;59.90;;;;;;8392903;28;20199;-73
2023/08/04 00:54:46;;;;;;;;;;;22.80;59.80;;;;;;8392296;28;19959;-73
2023/08/04 00:58:46;;;;;;;;;;;22.80;59.90;;;;;;8395640;28;19908;-73
2023/08/04 01:02:47;;;;;;;;;;;22.80;59.80;;;;;;8398595;28;20260;-73
2023/08/04 01:06:59;;;;;;;;;;;22.80;59.80;;;;;;8380386;28;19947;-73
2023/08/04 01:11:06;;;;;;;;;;;22.80;59.80;;;;;;8363753;28;20011;-73
2023/08/04 01:15:08;;;;;;;;;;;22.80;59.80;;;;;;8365591;28;19909;-73
2023/08/04 01:19:09;;;;;;;;;;;22.80;59.80;;;;;;8365053;28;19959;-72
2023/08/04 01:23:09;;;;;;;;;;;22.80;59.80;;;;;;8363395;28;19908;-73
2023/08/04 01:27:12;;;;;;;;;;;22.80;59.80;;;;;;8364163;28;20341;-72
2023/08/04 01:31:13;;;;;;;;;;;22.80;59.80;;;;;;8365435;28;19945;-72
2023/08/04 01:35:13;;;;;;;;;;;22.80;59.80;;;;;;8363167;28;19920;-73
2023/08/04 01:39:14;;;;;;;;;;;22.80;59.90;;;;;;8364418;28;19909;-73
2023/08/04 01:43:14;;;;;;;;;;;22.80;59.80;;;;;;8346424;28;19920;-73
2023/08/04 01:47:15;;;;;;;;;;;22.80;59.80;;;;;;8364414;28;19916;-73
2023/08/04 01:51:15;;;;;;;;;;;22.80;59.90;;;;;;8357452;28;20298;-73
2023/08/04 01:55:16;;;;;;;;;;;22.80;59.90;;;;;;8362572;28;20332;-73
2023/08/04 01:59:16;;;;;;;;;;;22.80;59.80;;;;;;8363735;28;19968;-72
2023/08/04 02:03:17;;;;;;;;;;;22.80;59.90;;;;;;8345596;28;19917;-73
2023/08/04 02:07:17;;;;;;;;;;;22.80;59.80;;;;;;8363273;28;19927;-72
2023/08/04 02:11:18;;;;;;;;;;;22.80;59.90;;;;;;8387755;28;20366;-73
2023/08/04 02:15:19;;;;;;;;;;;22.80;59.90;;;;;;8396926;28;19919;-73
2023/08/04 02:19:21;;;;;;;;;;;22.80;59.90;;;;;;8396328;28;19916;-72
2023/08/04 02:23:21;;;;;;;;;;;22.80;59.90;;;;;;8395872;28;19908;-73
2023/08/04 02:27:22;;;;;;;;;;;22.80;59.90;;;;;;8377416;28;19966;-72
2023/08/04 02:31:23;;;;;;;;;;;22.80;59.90;;;;;;8395713;28;19916;-73
2023/08/04 02:35:24;;;;;;;;;;;22.80;59.90;;;;;;8395669;28;19959;-72
2023/08/04 02:39:24;;;;;;;;;;;22.80;59.90;;;;;;8396041;28;19913;-72
2023/08/04 02:43:25;;;;;;;;;;;22.80;59.90;;;;;;8378063;28;20321;-73
2023/08/04 02:47:25;;;;;;;;;;;22.80;59.90;;;;;;8395235;28;19930;-72
2023/08/04 02:51:26;;;;;;;;;;;22.80;59.90;;;;;;8395887;28;19912;-73
2023/08/04 02:55:29;;;;;;;;;;;22.80;59.90;;;;;;8376891;28;19958;-72
2023/08/04 02:59:29;;;;;;;;;;;22.80;59.90;;;;;;8360145;28;19916;-72
2023/08/04 03:03:30;;;;;;;;;;;22.80;59.90;;;;;;8394758;28;20011;-72
2023/08/04 03:07:32;;;;;;;;;;;22.80;59.90;;;;;;8359830;28;20408;-73
2023/08/04 03:11:33;;;;;;;;;;;22.80;59.90;;;;;;8394234;28;20528;-72
2023/08/04 03:15:34;;;;;;;;;;;22.80;59.90;;;;;;8376461;28;20287;-72
2023/08/04 03:19:34;;;;;;;;;;;22.80;59.90;;;;;;8393744;28;19954;-73
2023/08/04 03:23:35;;;;;;;;;;;22.80;59.90;;;;;;8393964;28;19912;-72
2023/08/04 03:27:35;;;;;;;;;;;22.80;59.90;;;;;;8393576;28;19928;-72
2023/08/04 03:31:36;;;;;;;;;;;22.80;59.90;;;;;;8393738;28;19912;-73
2023/08/04 03:35:36;;;;;;;;;;;22.80;59.90;;;;;;8375908;28;19912;-72
2023/08/04 03:39:37;;;;;;;;;;;22.80;59.90;;;;;;8393874;28;20336;-73
2023/08/04 03:43:37;;;;;;;;;;;22.80;59.90;;;;;;8393652;28;19916;-72
2023/08/04 03:47:38;;;;;;;;;;;22.80;59.90;;;;;;8393523;28;19963;-72
2023/08/04 03:51:39;;;;;;;;;;;22.80;59.90;;;;;;8375793;28;19909;-72
2023/08/04 03:55:39;;;;;;;;;;;22.80;59.90;;;;;;8392796;28;19974;-72
2023/08/04 03:59:40;;;;;;;;;;;22.80;60.00;;;;;;8393332;28;19913;-72
2023/08/04 04:03:40;;;;;;;;;;;22.80;59.90;;;;;;8375232;28;19958;-73
2023/08/04 04:07:41;;;;;;;;;;;22.70;59.90;;;;;;8393023;28;19916;-73
2023/08/04 04:11:42;;;;;;;;;;;22.80;60.00;;;;;;8374988;28;19925;-73
2023/08/04 04:15:42;;;;;;;;;;;22.80;60.00;;;;;;8392859;28;20069;-72
2023/08/04 04:19:43;;;;;;;;;;;22.80;60.00;;;;;;8392989;28;19913;-72
2023/08/04 04:23:43;;;;;;;;;;;22.80;60.00;;;;;;8393493;28;19909;-72
2023/08/04 04:27:44;;;;;;;;;;;22.80;60.00;;;;;;8374167;28;19925;-72
2023/08/04 04:31:44;;;;;;;;;;;22.80;60.00;;;;;;8374948;28;20354;-72
2023/08/04 04:35:49;;;;;;;;;;;22.80;60.00;;;;;;8399481;28;19908;-73
2023/08/04 04:39:49;;;;;;;;;;;22.80;60.00;;;;;;8381186;28;19908;-72
2023/08/04 04:43:50;;;;;;;;;;;22.80;60.10;;;;;;8399372;28;19913;-72
2023/08/04 04:47:51;;;;;;;;;;;22.80;60.10;;;;;;8399209;28;19919;-72
2023/08/04 04:51:51;;;;;;;;;;;22.80;60.10;;;;;;8399193;28;19915;-72
2023/08/04 04:55:52;;;;;;;;;;;22.80;60.10;;;;;;8398452;28;19919;-73
2023/08/04 04:59:52;;;;;;;;;;;22.80;60.10;;;;;;8380916;28;20057;-73
2023/08/04 05:03:53;;;;;;;;;;;22.80;60.10;;;;;;8398367;28;20007;-73
2023/08/04 05:07:53;;;;;;;;;;;22.80;60.10;;;;;;8380876;28;19921;-72
2023/08/04 05:11:54;;;;;;;;;;;22.70;60.10;;;;;;8363935;28;19927;-73
2023/08/04 05:15:54;;;;;;;;;;;22.80;60.10;;;;;;8363504;28;19913;-73
2023/08/04 05:19:55;;;;;;;;;;;22.80;60.10;;;;;;8365051;28;19920;-73
2023/08/04 05:23:55;;;;;;;;;;;22.80;60.20;;;;;;8364632;28;19912;-72
2023/08/04 05:27:56;;;;;;;;;;;22.80;60.10;;;;;;8364542;28;20018;-73
2023/08/04 05:31:56;;;;;;;;;;;22.80;60.20;;;;;;8364860;28;19913;-72
2023/08/04 05:35:57;;;;;;;;;;;22.80;60.20;;;;;;8346794;28;19909;-72
2023/08/04 05:39:58;;;;;;;;;;;22.80;60.20;;;;;;8362569;28;19913;-72
2023/08/04 05:43:58;;;;;;;;;;;22.80;60.20;;;;;;8363090;28;19924;-73
2023/08/04 05:47:59;;;;;;;;;;;22.70;60.10;;;;;;8346484;28;20289;-71
2023/08/04 05:51:59;;;;;;;;;;;22.80;60.20;;;;;;8364190;28;19920;-72
2023/08/04 05:56:00;;;;;;;;;;;22.70;60.20;;;;;;8363592;28;20191;-72
2023/08/04 06:00:00;;;;;;;;;;;22.80;60.20;;;;;;8362820;28;20294;-72
2023/08/04 06:04:01;;;;;;;;;;;22.70;60.10;;;;;;8363715;28;20389;-73
2023/08/04 06:08:02;;;;;;;;;;;22.70;60.10;;;;;;8363596;28;19921;-73
2023/08/04 06:12:02;;;;;;;;;;;22.70;60.10;;;;;;8394110;28;19946;-73
2023/08/04 06:16:03;;;;;;;;;;;22.70;60.20;;;;;;8378961;28;20003;-73
2023/08/04 06:20:04;;;;;;;;;;;22.70;60.10;;;;;;8379430;28;19938;-73
2023/08/04 06:24:05;;;;;;;;;;;22.70;60.20;;;;;;8378560;28;19955;-73
2023/08/04 06:28:06;;;;;;;;;;;22.70;60.20;;;;;;8395103;28;19970;-73
2023/08/04 06:32:07;;;;;;;;;;;22.80;60.20;;;;;;8378190;28;19913;-73
2023/08/04 06:36:08;;;;;;;;;;;22.70;60.20;;;;;;8378333;28;20062;-73
2023/08/04 06:40:09;;;;;;;;;;;22.70;60.20;;;;;;8396052;28;19916;-73
2023/08/04 06:44:10;;;;;;;;;;;22.70;60.20;;;;;;8395742;28;19909;-72
2023/08/04 06:48:10;;;;;;;;;;;22.80;60.20;;;;;;8377673;28;20194;-73
2023/08/04 06:52:11;;;;;;;;;;;22.80;60.20;;;;;;8377627;28;19920;-72
2023/08/04 06:56:11;;;;;;;;;;;22.70;60.20;;;;;;8376600;28;19912;-72
2023/08/04 07:00:12;;;;;;;;;;;22.80;60.20;;;;;;8377197;28;19913;-73
2023/08/04 07:04:13;;;;;;;;;;;22.70;60.20;;;;;;8377232;28;19942;-72
2023/08/04 07:08:13;;;;;;;;;;;22.80;60.30;;;;;;8394450;28;19973;-73
2023/08/04 07:12:14;;;;;;;;;;;22.80;60.30;;;;;;8394643;28;20374;-70
2023/08/04 07:16:14;;;;;;;;;;;22.80;60.30;;;;;;8394507;28;19912;-73
2023/08/04 07:20:15;;;;;;;;;;;22.80;60.30;;;;;;8394448;28;19912;-73
2023/08/04 07:24:15;;;;;;;;;;;22.70;60.20;;;;;;8394482;28;19912;-73
2023/08/04 07:28:16;;;;;;;;;;;22.70;60.20;;;;;;8375885;28;19920;-73
2023/08/04 07:32:17;;;;;;;;;;;22.70;60.20;;;;;;8394668;28;19995;-73
2023/08/04 07:36:17;;;;;;;;;;;22.70;60.20;;;;;;8394246;28;19909;-73
2023/08/04 07:40:18;;;;;;;;;;;22.70;60.20;;;;;;8376054;28;19927;-73
2023/08/04 07:44:18;;;;;;;;;;;22.70;60.20;;;;;;8394564;28;20278;-73
2023/08/04 07:48:19;;;;;;;;;;;22.70;60.20;;;;;;8394757;28;19920;-73
2023/08/04 07:52:20;;;;;;;;;;;22.80;60.30;;;;;;8394835;28;19908;-73
2023/08/04 07:56:20;;;;;;;;;;;22.70;60.30;;;;;;8394940;28;19919;-73
2023/08/04 08:00:21;;;;;;;;;;;22.70;60.20;;;;;;8377336;28;19912;-73
2023/08/04 08:04:22;;;;;;;;;;;22.70;60.20;;;;;;8377761;28;19983;-73
2023/08/04 08:08:22;;;;;;;;;;;22.80;60.30;;;;;;8377879;28;19917;-72
2023/08/04 08:12:23;;;;;;;;;;;22.70;60.30;;;;;;8399354;28;19912;-73
2023/08/04 08:16:23;;;;;;;;;;;22.70;60.20;;;;;;8405374;28;19912;-73
2023/08/04 08:20:24;;;;;;;;;;;22.70;60.20;;;;;;8411953;28;19935;-73
2023/08/04 08:24:24;;;;;;;;;;;22.70;60.30;;;;;;8378174;28;19918;-72
2023/08/04 08:28:25;;;;;;;;;;;22.70;60.30;;;;;;8389735;28;19927;-73
2023/08/04 08:32:25;;;;;;;;;;;22.70;60.30;;;;;;8399745;28;19897;-73
2023/08/04 08:36:26;;;;;;;;;;;22.70;60.30;;;;;;8400637;28;19901;-72
2023/08/04 08:40:27;;;;;;;;;;;22.70;60.30;;;;;;8381630;28;19912;-73
2023/08/04 08:44:27;;;;;;;;;;;22.70;60.30;;;;;;8360200;28;19999;-73
2023/08/04 08:48:29;;;;;;;;;;;22.70;60.20;;;;;;8359498;28;19927;-72
2023/08/04 08:52:32;;;;;;;;;;;22.70;60.30;;;;;;8359740;28;20027;-73
2023/08/04 08:56:33;;;;;;;;;;;22.70;60.30;;;;;;8374518;28;19917;-72
2023/08/04 09:00:34;;;;;;;;;;;22.70;60.20;;;;;;8392616;28;19943;-73
2023/08/04 09:04:37;;;;;;;;;;;22.80;60.30;;;;;;8392628;28;19920;-73
2023/08/04 09:08:38;;;;;;;;;;;22.70;60.20;;;;;;8374437;28;20278;-72
2023/08/04 09:12:39;;;;;;;;;;;22.70;60.20;;;;;;8374568;28;19951;-73
2023/08/04 09:16:39;;;;;;;;;;;22.70;60.20;;;;;;8392919;28;20369;-72
2023/08/04 09:20:40;;;;;;;;;;;22.70;60.20;;;;;;8379443;28;20159;-73
2023/08/04 09:24:51;;;;;;;;;;;22.70;60.20;;;;;;8398401;28;19963;-73
2023/08/04 09:29:05;;;;;;;;;;;22.70;60.20;;;;;;8398646;28;19967;-73
2023/08/04 09:33:08;;;;;;;;;;;22.70;60.20;;;;;;8398446;28;19923;-73
2023/08/04 09:37:08;;;;;;;;;;;22.70;60.20;;;;;;8398030;28;19913;-73
2023/08/04 09:41:13;;;;;;;;;;;22.70;60.20;;;;;;8379632;28;19913;-73
2023/08/04 09:45:14;;;;;;;;;;;22.70;60.20;;;;;;8379869;28;19909;-73
2023/08/04 09:49:15;;;;;;;;;;;22.70;60.20;;;;;;8397240;28;19917;-73
2023/08/04 09:53:15;;;;;;;;;;;22.70;60.20;;;;;;8379171;28;20366;-72
2023/08/04 09:57:16;;;;;;;;;;;22.70;60.20;;;;;;8397165;28;19916;-73
2023/08/04 10:01:20;;;;;;;;;;;22.70;60.10;;;;;;8378869;28;20007;-72
2023/08/04 10:05:21;;;;;;;;;;;22.70;60.20;;;;;;8396722;28;19920;-72
2023/08/04 10:09:21;;;;;;;;;;;22.70;60.20;;;;;;8361954;28;20014;-73
2023/08/04 10:13:23;;;;;;;;;;;22.70;60.20;;;;;;8396709;28;20360;-72
2023/08/04 10:17:25;;;;;;;;;;;22.70;60.10;;;;;;8378416;28;19965;-73
2023/08/04 10:21:27;;;;;;;;;;;22.70;60.20;;;;;;8396523;28;19954;-73
2023/08/04 10:25:28;;;;;;;;;;;22.70;60.20;;;;;;8395717;28;19962;-73
2023/08/04 10:29:32;;;;;;;;;;;22.70;60.10;;;;;;8377318;28;19974;-72
2023/08/04 10:33:32;;;;;;;;;;;22.70;60.10;;;;;;8395633;28;19908;-73
2023/08/04 10:37:43;;;;;;;;;;;22.70;60.10;;;;;;8395653;28;19920;-73
2023/08/04 10:41:46;;;;;;;;;;;22.70;60.10;;;;;;8395652;28;19948;-73
2023/08/04 10:46:09;;;;;;;;;;;22.70;60.10;;;;;;8395397;28;19955;-73
2023/08/04 10:50:10;;;;;;;;;;;22.70;60.10;;;;;;8377357;28;19977;-73
2023/08/04 10:54:11;;;;;;;;;;;22.70;60.20;;;;;;8395040;28;20414;-73
2023/08/04 10:58:17;;;;;;;;;;;22.70;60.20;;;;;;8394888;28;19912;-73
2023/08/04 11:02:18;;;;;;;;;;;22.70;60.20;;;;;;8395027;28;19912;-72
2023/08/04 11:06:19;;;;;;;;;;;22.70;60.20;;;;;;8394441;28;19912;-73
2023/08/04 11:10:20;;;;;;;;;;;22.70;60.20;;;;;;8359683;28;20012;-73
2023/08/04 11:14:21;;;;;;;;;;;22.70;60.20;;;;;;8394486;28;20322;-73
2023/08/04 11:18:26;;;;;;;;;;;22.70;60.20;;;;;;8394291;28;19959;-73
2023/08/04 11:22:26;;;;;;;;;;;22.70;60.10;;;;;;8376698;28;19909;-73
2023/08/04 11:26:27;;;;;;;;;;;22.70;60.20;;;;;;8376095;28;19913;-72
2023/08/04 11:30:28;;;;;;;;;;;22.70;60.20;;;;;;8394424;28;19916;-72
2023/08/04 11:34:28;;;;;;;;;;;22.70;60.10;;;;;;8393786;28;19916;-73
2023/08/04 11:38:29;;;;;;;;;;;22.70;60.20;;;;;;8393913;28;19916;-73
2023/08/04 11:42:30;;;;;;;;;;;22.70;60.20;;;;;;8393494;28;19919;-73
2023/08/04 11:46:30;;;;;;;;;;;22.70;60.20;;;;;;8393468;28;19983;-72
2023/08/04 11:50:31;;;;;;;;;;;22.70;60.10;;;;;;8375389;28;20487;-73
2023/08/04 11:54:31;;;;;;;;;;;22.70;60.10;;;;;;8375488;28;19912;-73
2023/08/04 11:58:33;;;;;;;;;;;22.70;60.20;;;;;;8393203;28;19909;-73
2023/08/04 12:02:33;;;;;;;;;;;22.70;60.20;;;;;;8393164;28;19909;-73
2023/08/04 12:06:34;;;;;;;;;;;22.70;60.10;;;;;;8375563;28;19919;-73
2023/08/04 12:10:35;;;;;;;;;;;22.70;60.20;;;;;;8392806;28;20394;-73
2023/08/04 12:14:35;;;;;;;;;;;22.70;60.20;;;;;;8393085;28;19913;-73
2023/08/04 12:18:37;;;;;;;;;;;22.70;60.20;;;;;;8375238;28;19913;-73
2023/08/04 12:22:38;;;;;;;;;;;22.70;60.20;;;;;;8392996;28;19919;-73
2023/08/04 12:26:39;;;;;;;;;;;22.70;60.20;;;;;;8392548;28;20006;-70
2023/08/04 12:30:40;;;;;;;;;;;22.70;60.20;;;;;;8392843;28;19960;-72
2023/08/04 12:34:40;;;;;;;;;;;22.70;60.20;;;;;;8375094;28;19908;-72
2023/08/04 12:38:41;;;;;;;;;;;22.70;60.20;;;;;;8392754;28;20348;-72
2023/08/04 12:42:41;;;;;;;;;;;22.70;60.20;;;;;;8374827;28;20400;-72
2023/08/04 12:46:42;;;;;;;;;;;22.70;60.20;;;;;;8392715;28;19913;-72
2023/08/04 12:50:42;;;;;;;;;;;22.70;60.20;;;;;;8374939;28;19917;-72
2023/08/04 12:54:43;;;;;;;;;;;22.70;60.20;;;;;;8395240;28;20336;-73
2023/08/04 12:58:43;;;;;;;;;;;22.70;60.20;;;;;;8364422;28;20260;-72
2023/08/04 13:02:44;;;;;;;;;;;22.70;60.20;;;;;;8398485;28;19923;-72
2023/08/04 13:06:44;;;;;;;;;;;22.70;60.30;;;;;;8380482;28;20278;-72
2023/08/04 13:10:45;;;;;;;;;;;22.70;60.30;;;;;;8398099;28;19958;-72
2023/08/04 13:14:45;;;;;;;;;;;22.70;60.20;;;;;;8363667;28;19970;-72
2023/08/04 13:18:46;;;;;;;;;;;22.70;60.20;;;;;;8398616;28;19919;-72
2023/08/04 13:22:47;;;;;;;;;;;22.70;60.30;;;;;;8380402;28;19935;-72
2023/08/04 13:26:47;;;;;;;;;;;22.70;60.30;;;;;;8397485;28;19909;-72
2023/08/04 13:30:49;;;;;;;;;;;22.70;60.30;;;;;;8379346;28;21684;-72
2023/08/04 13:34:50;;;;;;;;;;;22.70;60.30;;;;;;8379903;28;19952;-72
2023/08/04 13:38:51;;;;;;;;;;;22.70;60.30;;;;;;8379455;28;19944;-72
2023/08/04 13:42:51;;;;;;;;;;;22.70;60.20;;;;;;8379656;28;20306;-72
2023/08/04 13:46:52;;;;;;;;;;;22.70;60.30;;;;;;8397814;28;19913;-72
2023/08/04 13:50:52;;;;;;;;;;;22.70;60.30;;;;;;8397104;28;19928;-72
2023/08/04 13:54:53;;;;;;;;;;;22.70;60.30;;;;;;8396809;28;19912;-72
2023/08/04 13:58:53;;;;;;;;;;;22.70;60.30;;;;;;8396922;28;19913;-72
2023/08/04 14:02:54;;;;;;;;;;;22.70;60.30;;;;;;8378683;28;19912;-72
2023/08/04 14:06:54;;;;;;;;;;;22.70;60.20;;;;;;8378603;28;19913;-72
2023/08/04 14:10:55;;;;;;;;;;;22.70;60.30;;;;;;8396161;28;19921;-72
2023/08/04 14:14:55;;;;;;;;;;;22.70;60.30;;;;;;8361720;28;20298;-72
2023/08/04 14:18:56;;;;;;;;;;;22.70;60.30;;;;;;8378749;28;19908;-72
2023/08/04 14:22:56;;;;;;;;;;;22.70;60.20;;;;;;8378312;28;20342;-72
2023/08/04 14:26:57;;;;;;;;;;;22.70;60.30;;;;;;8396409;28;19912;-72
2023/08/04 14:30:58;;;;;;;;;;;22.70;60.30;;;;;;8378431;28;19916;-72
2023/08/04 14:34:58;;;;;;;;;;;22.70;60.30;;;;;;8361763;28;19944;-72
2023/08/04 14:39:00;;;;;;;;;;;22.70;60.30;;;;;;8396009;28;20393;-72
2023/08/04 14:43:00;;;;;;;;;;;22.70;60.20;;;;;;8395467;28;19944;-72
2023/08/04 14:47:01;;;;;;;;;;;22.70;60.30;;;;;;8361007;28;19916;-72
2023/08/04 14:51:01;;;;;;;;;;;22.70;60.30;;;;;;8360599;28;20473;-72
2023/08/04 14:55:02;;;;;;;;;;;22.70;60.30;;;;;;8394572;28;19912;-72
2023/08/04 14:59:02;;;;;;;;;;;22.70;60.20;;;;;;8395149;28;20003;-72
2023/08/04 15:03:03;;;;;;;;;;;22.70;60.30;;;;;;8360438;28;19916;-72
2023/08/04 15:07:04;;;;;;;;;;;22.70;60.30;;;;;;8394505;28;19920;-72
2023/08/04 15:11:06;;;;;;;;;;;22.70;60.30;;;;;;8394791;28;19920;-72
2023/08/04 15:15:06;;;;;;;;;;;22.70;60.30;;;;;;8376630;28;20010;-72
2023/08/04 15:19:07;;;;;;;;;;;22.70;60.20;;;;;;8375935;28;19927;-72
2023/08/04 15:23:07;;;;;;;;;;;22.70;60.20;;;;;;8376656;28;20047;-72
2023/08/04 15:27:08;;;;;;;;;;;22.70;60.30;;;;;;8394145;28;19908;-72
2023/08/04 15:31:09;;;;;;;;;;;22.70;60.30;;;;;;8393780;28;19927;-72
2023/08/04 15:35:10;;;;;;;;;;;22.70;60.30;;;;;;8359588;28;20276;-72
2023/08/04 15:39:10;;;;;;;;;;;22.70;60.30;;;;;;8375883;28;19913;-72
2023/08/04 15:43:12;;;;;;;;;;;22.70;60.30;;;;;;8375825;28;19913;-72
2023/08/04 15:47:15;;;;;;;;;;;22.70;60.30;;;;;;8376376;28;19982;-72
2023/08/04 15:51:15;;;;;;;;;;;22.70;60.30;;;;;;8395040;28;19916;-72
2023/08/04 15:55:16;;;;;;;;;;;22.70;60.30;;;;;;8359829;28;19959;-72
2023/08/04 15:59:17;;;;;;;;;;;22.70;60.30;;;;;;8394874;28;20396;-72
2023/08/04 16:03:17;;;;;;;;;;;22.70;60.30;;;;;;8394869;28;19913;-72
2023/08/04 16:07:18;;;;;;;;;;;22.70;60.30;;;;;;8395092;28;19912;-72
2023/08/04 16:11:18;;;;;;;;;;;22.70;60.30;;;;;;8394468;28;19916;-72
2023/08/04 16:15:19;;;;;;;;;;;22.70;60.30;;;;;;8395866;28;19917;-72
2023/08/04 16:19:20;;;;;;;;;;;22.70;60.30;;;;;;8397265;28;19951;-72
2023/08/04 16:23:21;;;;;;;;;;;22.70;60.30;;;;;;8396002;28;19913;-72
2023/08/04 16:27:21;;;;;;;;;;;22.70;60.30;;;;;;8415695;28;19915;-72
2023/08/04 16:31:22;;;;;;;;;;;22.70;60.30;;;;;;8421833;28;19913;-72
2023/08/04 16:35:23;;;;;;;;;;;22.60;60.20;;;;;;8441540;28;19901;-72
2023/08/04 16:39:25;;;;;;;;;;;22.70;60.30;;;;;;8441803;28;19911;-72
2023/08/04 16:43:25;;;;;;;;;;;22.70;60.30;;;;;;8441213;28;19983;-72
2023/08/04 16:47:26;;;;;;;;;;;22.60;60.20;;;;;;8422224;28;19913;-72
2023/08/04 16:51:26;;;;;;;;;;;22.70;60.30;;;;;;8399517;28;20365;-73
2023/08/04 16:55:27;;;;;;;;;;;22.70;60.30;;;;;;8380683;28;19934;-72
2023/08/04 16:59:28;;;;;;;;;;;22.70;60.30;;;;;;8380907;28;19947;-72
2023/08/04 17:03:28;;;;;;;;;;;22.70;60.30;;;;;;8399074;28;19913;-72
2023/08/04 17:07:29;;;;;;;;;;;22.70;60.30;;;;;;8398776;28;19959;-72
2023/08/04 17:11:29;;;;;;;;;;;22.70;60.30;;;;;;8398419;28;19927;-72
2023/08/04 17:15:30;;;;;;;;;;;22.70;60.30;;;;;;8363849;28;20496;-72
2023/08/04 17:19:30;;;;;;;;;;;22.60;60.30;;;;;;8399203;28;19912;-72
2023/08/04 17:23:31;;;;;;;;;;;22.70;60.30;;;;;;8380765;28;20006;-72
2023/08/04 17:27:31;;;;;;;;;;;22.60;60.30;;;;;;8364395;28;20267;-73
2023/08/04 17:31:32;;;;;;;;;;;22.70;60.30;;;;;;8381158;28;19913;-72
2023/08/04 17:35:33;;;;;;;;;;;22.60;60.30;;;;;;8381213;28;19913;-72
2023/08/04 17:39:33;;;;;;;;;;;22.70;60.30;;;;;;8397359;28;20286;-72
2023/08/04 17:43:34;;;;;;;;;;;22.70;60.30;;;;;;8397996;28;19919;-72
2023/08/04 17:47:34;;;;;;;;;;;22.70;60.30;;;;;;8397584;28;19969;-72
2023/08/04 17:51:35;;;;;;;;;;;22.70;60.30;;;;;;8397079;28;19999;-72
2023/08/04 17:55:35;;;;;;;;;;;22.60;60.30;;;;;;8378676;28;19966;-72
2023/08/04 17:59:36;;;;;;;;;;;22.70;60.30;;;;;;8397020;28;19912;-72
2023/08/04 18:03:36;;;;;;;;;;;22.60;60.20;;;;;;8396734;28;20336;-72
2023/08/04 18:07:37;;;;;;;;;;;22.70;60.30;;;;;;8396956;28;20332;-72
2023/08/04 18:11:37;;;;;;;;;;;22.60;60.30;;;;;;8396558;28;19920;-72
2023/08/04 18:15:38;;;;;;;;;;;22.70;60.30;;;;;;8361793;28;19919;-72
2023/08/04 18:19:38;;;;;;;;;;;22.70;60.30;;;;;;8396312;28;20277;-72
2023/08/04 18:23:39;;;;;;;;;;;22.60;60.30;;;;;;8396057;28;19913;-72
2023/08/04 18:27:39;;;;;;;;;;;22.60;60.30;;;;;;8395529;28;19924;-72
2023/08/04 18:31:40;;;;;;;;;;;22.60;60.30;;;;;;8395960;28;20236;-72
2023/08/04 18:35:41;;;;;;;;;;;22.70;60.40;;;;;;8395978;28;20366;-72
2023/08/04 18:39:41;;;;;;;;;;;22.60;60.30;;;;;;8361249;28;19913;-72
2023/08/04 18:43:42;;;;;;;;;;;22.60;60.30;;;;;;8377540;28;19913;-73
2023/08/04 18:47:42;;;;;;;;;;;22.70;60.40;;;;;;8395381;28;19919;-72
2023/08/04 18:51:43;;;;;;;;;;;22.60;60.30;;;;;;8360037;28;19912;-72
2023/08/04 18:55:43;;;;;;;;;;;22.70;60.30;;;;;;8360105;28;20298;-72
2023/08/04 18:59:44;;;;;;;;;;;22.60;60.30;;;;;;8394955;28;19919;-72
2023/08/04 19:03:44;;;;;;;;;;;22.70;60.40;;;;;;8377297;28;19912;-72
2023/08/04 19:07:46;;;;;;;;;;;22.60;60.30;;;;;;8360504;28;19919;-72
2023/08/04 19:11:46;;;;;;;;;;;22.60;60.30;;;;;;8376519;28;19920;-72
2023/08/04 19:15:47;;;;;;;;;;;22.60;60.30;;;;;;8376503;28;19913;-72
2023/08/04 19:19:47;;;;;;;;;;;22.70;60.30;;;;;;8376660;28;20471;-72
2023/08/04 19:23:49;;;;;;;;;;;22.60;60.30;;;;;;8394411;28;19958;-72
2023/08/04 19:27:49;;;;;;;;;;;22.70;60.40;;;;;;8393569;28;19921;-72
2023/08/04 19:31:50;;;;;;;;;;;22.60;60.30;;;;;;8393877;28;19916;-72
2023/08/04 19:35:50;;;;;;;;;;;22.60;60.30;;;;;;8359463;28;20432;-72
2023/08/04 19:39:51;;;;;;;;;;;22.60;60.30;;;;;;8393835;28;19938;-72
2023/08/04 19:43:52;;;;;;;;;;;22.60;60.30;;;;;;8393716;28;19908;-73
2023/08/04 19:47:52;;;;;;;;;;;22.60;60.30;;;;;;8375850;28;20019;-72
2023/08/04 19:51:53;;;;;;;;;;;22.60;60.30;;;;;;8358991;28;19909;-72
2023/08/04 19:56:00;;;;;;;;;;;22.60;60.30;;;;;;8392931;28;20459;-72
2023/08/04 20:00:00;;;;;;;;;;;22.70;60.40;;;;;;8393726;28;20370;-72
2023/08/04 20:04:01;;;;;;;;;;;22.70;60.50;;;;;;8393061;28;20407;-72
2023/08/04 20:08:01;;;;;;;;;;;22.60;60.40;;;;;;8375407;28;19982;-72
2023/08/04 20:12:02;;;;;;;;;;;22.60;60.40;;;;;;8393213;28;19969;-72
2023/08/04 20:16:14;;;;;;;;;;;22.70;60.40;;;;;;8393146;28;19912;-72
2023/08/04 20:20:14;;;;;;;;;;;22.60;60.30;;;;;;8375026;28;20364;-72
2023/08/04 20:24:15;;;;;;;;;;;22.60;61.20;;;;;;8377580;28;20289;-72
2023/08/04 20:28:15;;;;;;;;;;;22.70;60.60;;;;;;8372542;28;19970;-72
2023/08/04 20:32:16;;;;;;;;;;;22.70;61.90;;;;;;8372566;28;19913;-72
2023/08/04 20:36:16;;;;;;;;;;;22.80;62.00;;;;;;8354990;28;19924;-72
2023/08/04 20:40:17;;;;;;;;;;;22.80;61.40;;;;;;8354636;28;19920;-72
2023/08/04 20:44:17;;;;;;;;;;;22.80;61.80;;;;;;8372505;28;19920;-73
2023/08/04 20:48:19;;;;;;;;;;;22.90;61.30;;;;;;8355020;28;19924;-73
2023/08/04 20:52:19;;;;;;;;;;;22.80;61.60;;;;;;8354200;28;19916;-72
2023/08/04 20:56:20;;;;;;;;;;;22.90;61.40;;;;;;8354492;28;19962;-72
2023/08/04 21:00:20;;;;;;;;;;;22.90;61.80;;;;;;8354385;28;20292;-73
2023/08/04 21:04:21;;;;;;;;;;;22.90;61.50;;;;;;8372390;28;19913;-70
2023/08/04 21:08:22;;;;;;;;;;;22.90;61.20;;;;;;8354366;28;19924;-71
2023/08/04 21:12:22;;;;;;;;;;;22.90;61.00;;;;;;8321797;28;19935;-76
2023/08/04 21:16:23;;;;;;;;;;;22.90;60.80;;;;;;8343046;28;19921;-74
2023/08/04 21:20:23;;;;;;;;;;;22.90;60.80;;;;;;8360363;28;19937;-74
2023/08/04 21:24:24;;;;;;;;;;;22.90;61.10;;;;;;8352577;28;19921;-74
2023/08/04 21:28:24;;;;;;;;;;;23.00;61.30;;;;;;8344599;28;20310;-74
2023/08/04 21:32:25;;;;;;;;;;;23.00;61.90;;;;;;8318375;28;19979;-74
2023/08/04 21:36:25;;;;;;;;;;;23.00;61.40;;;;;;8344448;28;19947;-74
2023/08/04 21:40:26;;;;;;;;;;;23.00;62.10;;;;;;8344783;28;20361;-74
2023/08/04 21:44:26;;;;;;;;;;;23.00;61.60;;;;;;8343004;28;19917;-75
2023/08/04 21:48:27;;;;;;;;;;;23.00;61.60;;;;;;8342883;28;19929;-76
2023/08/04 21:52:27;;;;;;;;;;;23.00;61.10;;;;;;8342420;28;19921;-75
2023/08/04 21:56:28;;;;;;;;;;;23.00;62.30;;;;;;8342929;28;20286;-75
2023/08/04 22:00:29;;;;;;;;;;;23.00;61.40;;;;;;8343859;28;19913;-76
2023/08/04 22:04:29;;;;;;;;;;;23.00;61.60;;;;;;8343270;28;19916;-76
2023/08/04 22:08:30;;;;;;;;;;;23.00;61.50;;;;;;8342779;28;19964;-76
2023/08/04 22:12:30;;;;;;;;;;;23.00;61.40;;;;;;8341974;28;20385;-75
2023/08/04 22:16:31;;;;;;;;;;;23.00;61.30;;;;;;8376273;28;19920;-75
2023/08/04 22:20:31;;;;;;;;;;;23.00;61.40;;;;;;8358309;28;19917;-75
2023/08/04 22:24:32;;;;;;;;;;;23.00;61.20;;;;;;8376154;28;20006;-75
2023/08/04 22:28:33;;;;;;;;;;;23.00;61.00;;;;;;8375541;28;20712;-75
2023/08/04 22:32:34;;;;;;;;;;;23.00;61.70;;;;;;8341439;28;20020;-75
2023/08/04 22:36:34;;;;;;;;;;;23.00;61.40;;;;;;8375514;28;19916;-75
2023/08/04 22:40:35;;;;;;;;;;;23.00;61.40;;;;;;8357971;28;19912;-75
2023/08/04 22:44:36;;;;;;;;;;;23.00;61.40;;;;;;8357446;28;20015;-76
2023/08/04 22:48:36;;;;;;;;;;;23.00;61.20;;;;;;8375291;28;19912;-76
2023/08/04 22:52:37;;;;;;;;;;;23.00;61.40;;;;;;8357531;28;20156;-75
2023/08/04 22:56:37;;;;;;;;;;;23.00;61.60;;;;;;8374869;28;20042;-76
2023/08/04 23:00:38;;;;;;;;;;;23.00;61.70;;;;;;8357130;28;19916;-76
2023/08/04 23:04:38;;;;;;;;;;;23.00;61.50;;;;;;8357372;28;19919;-76
2023/08/04 23:08:39;;;;;;;;;;;23.00;61.60;;;;;;8374845;28;19928;-74
2023/08/04 23:12:41;;;;;;;;;;;23.00;61.80;;;;;;8340257;28;20111;-75
2023/08/04 23:16:42;;;;;;;;;;;23.00;61.30;;;;;;8374969;28;19925;-75
2023/08/04 23:20:47;;;;;;;;;;;23.00;61.80;;;;;;8355406;28;19927;-77